Time;durP1;ratioP1;P1;durP2;ratioP2;P2;SDS_P1;SDS_P2;PMS_P1;PMS_P2;Temp;Humidity;BMP_temperature;BMP_pressure;BME280_temperature;BME280_humidity;BME280_pressure;Samples;Min_cycle;Max_cycle;Signal;HPM_P1;HPM_P2
2021/10/20 00:02:13;;;;;;;18.40;14.00;;;;;;;;;;5017730;28;20235;-74
2021/10/20 00:04:38;;;;;;;14.93;13.30;;;;;;;;;;5016158;28;20188;-74
2021/10/20 00:07:03;;;;;;;15.87;12.90;;;;;;;;;;5013495;28;20176;-74
2021/10/20 00:09:28;;;;;;;17.90;14.20;;;;;;;;;;5013370;28;20188;-73
2021/10/20 00:11:54;;;;;;;14.30;12.80;;;;;;;;;;5014389;28;20228;-74
2021/10/20 00:14:19;;;;;;;20.60;13.93;;;;;;;;;;5015589;28;20223;-74
2021/10/20 00:16:44;;;;;;;15.67;13.00;;;;;;;;;;5017205;28;20187;-74
2021/10/20 00:19:10;;;;;;;17.60;12.50;;;;;;;;;;5017042;28;20184;-74
2021/10/20 00:21:35;;;;;;;14.93;12.93;;;;;;;;;;5019359;28;20203;-74
2021/10/20 00:24:00;;;;;;;14.50;12.80;;;;;;;;;;5013091;28;20219;-75
2021/10/20 00:26:26;;;;;;;16.23;13.33;;;;;;;;;;5016118;28;20604;-74
2021/10/20 00:28:51;;;;;;;19.70;13.17;;;;;;;;;;5011257;28;20231;-74
2021/10/20 00:31:17;;;;;;;20.27;13.77;;;;;;;;;;5014734;28;20247;-75
2021/10/20 00:33:42;;;;;;;16.83;14.17;;;;;;;;;;5014501;28;20251;-74
2021/10/20 00:36:07;;;;;;;14.87;12.60;;;;;;;;;;5013952;28;20180;-74
2021/10/20 00:38:32;;;;;;;18.80;13.30;;;;;;;;;;5019197;28;20234;-74
2021/10/20 00:40:58;;;;;;;17.93;13.63;;;;;;;;;;5011617;28;20254;-74
2021/10/20 00:43:24;;;;;;;15.20;13.13;;;;;;;;;;5012675;28;20185;-74
2021/10/20 00:45:49;;;;;;;14.70;12.50;;;;;;;;;;5015759;28;20846;-73
2021/10/20 00:48:15;;;;;;;14.60;13.10;;;;;;;;;;5014316;28;20477;-74
2021/10/20 00:50:40;;;;;;;15.80;12.80;;;;;;;;;;5019282;28;20657;-74
2021/10/20 00:53:05;;;;;;;16.03;12.67;;;;;;;;;;5013268;28;20201;-74
2021/10/20 00:55:30;;;;;;;14.70;11.63;;;;;;;;;;5013676;28;20293;-74
2021/10/20 00:57:56;;;;;;;15.87;12.40;;;;;;;;;;5011651;28;20188;-74
2021/10/20 01:00:21;;;;;;;17.87;13.00;;;;;;;;;;5017424;28;20255;-74
2021/10/20 01:02:47;;;;;;;14.37;12.93;;;;;;;;;;5013708;28;20195;-74
2021/10/20 01:05:13;;;;;;;12.10;10.90;;;;;;;;;;5017371;28;20181;-75
2021/10/20 01:07:38;;;;;;;20.23;11.80;;;;;;;;;;5013975;28;20267;-74
2021/10/20 01:10:04;;;;;;;17.33;11.83;;;;;;;;;;5014747;28;20962;-74
2021/10/20 01:12:30;;;;;;;13.50;11.97;;;;;;;;;;5020155;28;20212;-74
2021/10/20 01:14:55;;;;;;;12.60;10.70;;;;;;;;;;5018055;28;20428;-74
2021/10/20 01:17:21;;;;;;;12.73;11.43;;;;;;;;;;5017821;28;20177;-74
2021/10/20 01:19:46;;;;;;;13.43;10.70;;;;;;;;;;5017312;28;20299;-75
2021/10/20 01:22:11;;;;;;;13.57;11.40;;;;;;;;;;5020612;28;20211;-74
2021/10/20 01:24:37;;;;;;;15.53;11.90;;;;;;;;;;5021897;28;20180;-75
2021/10/20 01:27:02;;;;;;;12.90;11.10;;;;;;;;;;5012979;28;20181;-75
2021/10/20 01:29:28;;;;;;;13.50;10.90;;;;;;;;;;5018864;28;20218;-74
2021/10/20 01:31:55;;;;;;;16.90;11.97;;;;;;;;;;5012331;28;20196;-75
2021/10/20 01:34:22;;;;;;;13.73;10.90;;;;;;;;;;5017120;28;20184;-75
2021/10/20 01:36:49;;;;;;;12.23;10.97;;;;;;;;;;5019638;28;20426;-75
2021/10/20 01:39:14;;;;;;;14.20;9.80;;;;;;;;;;5015128;28;23428;-75
2021/10/20 01:41:40;;;;;;;13.40;11.53;;;;;;;;;;5016562;28;20481;-74
2021/10/20 01:44:06;;;;;;;12.10;10.90;;;;;;;;;;5015828;28;20180;-74
2021/10/20 01:46:31;;;;;;;11.40;10.13;;;;;;;;;;5020929;28;20482;-74
2021/10/20 01:48:56;;;;;;;11.57;10.33;;;;;;;;;;5017777;28;20188;-74
2021/10/20 01:51:22;;;;;;;11.20;9.47;;;;;;;;;;5016952;28;20204;-74
2021/10/20 01:53:47;;;;;;;11.83;10.60;;;;;;;;;;5016612;28;20201;-74
2021/10/20 01:56:12;;;;;;;12.50;10.13;;;;;;;;;;5018401;28;20263;-74
2021/10/20 01:58:39;;;;;;;10.50;8.57;;;;;;;;;;5015447;28;20177;-75
2021/10/20 02:01:07;;;;;;;10.87;9.87;;;;;;;;;;5016654;28;20196;-75
2021/10/20 02:03:33;;;;;;;14.03;10.30;;;;;;;;;;5013384;28;20432;-74
2021/10/20 02:05:58;;;;;;;9.40;8.50;;;;;;;;;;5014912;28;20963;-74
2021/10/20 02:08:23;;;;;;;11.00;9.80;;;;;;;;;;5014875;28;20185;-74
2021/10/20 02:10:49;;;;;;;10.23;9.13;;;;;;;;;;5015024;28;20220;-75
2021/10/20 02:13:14;;;;;;;11.27;9.17;;;;;;;;;;5018280;28;20212;-74
2021/10/20 02:15:40;;;;;;;9.70;8.63;;;;;;;;;;5015109;28;20246;-74
2021/10/20 02:18:05;;;;;;;10.60;8.53;;;;;;;;;;5014702;28;20218;-74
2021/10/20 02:20:30;;;;;;;10.50;8.30;;;;;;;;;;5020818;28;20216;-74
2021/10/20 02:22:55;;;;;;;10.80;7.70;;;;;;;;;;5015122;28;20633;-74
2021/10/20 02:25:22;;;;;;;9.33;7.90;;;;;;;;;;5020885;28;20192;-75
2021/10/20 02:27:48;;;;;;;14.63;8.90;;;;;;;;;;5017988;28;20252;-74
2021/10/20 02:30:13;;;;;;;11.57;8.50;;;;;;;;;;5016272;28;21236;-74
2021/10/20 02:32:38;;;;;;;9.60;8.43;;;;;;;;;;5019773;28;20855;-74
2021/10/20 02:35:05;;;;;;;8.97;8.07;;;;;;;;;;5017800;28;20208;-74
2021/10/20 02:37:33;;;;;;;9.17;8.10;;;;;;;;;;5019808;28;20326;-74
2021/10/20 02:39:58;;;;;;;9.30;8.40;;;;;;;;;;5015139;28;24731;-74
2021/10/20 02:42:23;;;;;;;10.50;8.60;;;;;;;;;;5018083;28;20470;-74
2021/10/20 02:44:49;;;;;;;9.00;8.10;;;;;;;;;;5016453;28;20688;-74
2021/10/20 02:47:14;;;;;;;11.63;8.50;;;;;;;;;;5011963;28;20665;-74
2021/10/20 02:49:39;;;;;;;8.27;7.47;;;;;;;;;;5019725;28;20810;-74
2021/10/20 02:52:04;;;;;;;10.13;7.67;;;;;;;;;;5017852;28;20181;-74
2021/10/20 02:54:30;;;;;;;9.40;8.27;;;;;;;;;;5016963;28;20211;-74
2021/10/20 02:56:55;;;;;;;9.87;8.70;;;;;;;;;;5015542;28;20648;-74
2021/10/20 02:59:21;;;;;;;10.53;8.90;;;;;;;;;;5017206;28;20609;-73
2021/10/20 03:01:46;;;;;;;11.90;8.43;;;;;;;;;;5017365;28;20881;-74
2021/10/20 03:04:11;;;;;;;10.80;8.53;;;;;;;;;;5015983;28;20625;-74
2021/10/20 03:06:36;;;;;;;12.43;8.60;;;;;;;;;;5020284;28;20563;-75
2021/10/20 03:09:02;;;;;;;8.87;7.97;;;;;;;;;;5014779;28;20176;-74
2021/10/20 03:11:27;;;;;;;8.30;7.13;;;;;;;;;;5017303;28;20231;-74
2021/10/20 03:13:54;;;;;;;9.60;7.17;;;;;;;;;;5015823;28;20462;-74
2021/10/20 03:16:19;;;;;;;9.10;8.20;;;;;;;;;;5016188;28;20223;-74
2021/10/20 03:18:45;;;;;;;10.00;8.20;;;;;;;;;;5016768;28;20431;-74
2021/10/20 03:21:10;;;;;;;9.20;7.50;;;;;;;;;;5013208;28;20309;-74
2021/10/20 03:23:35;;;;;;;8.27;7.17;;;;;;;;;;5010756;28;20191;-73
2021/10/20 03:26:00;;;;;;;8.80;7.30;;;;;;;;;;5011838;28;20240;-74
2021/10/20 03:28:26;;;;;;;8.13;7.30;;;;;;;;;;5016829;28;20185;-75
2021/10/20 03:30:51;;;;;;;13.93;7.70;;;;;;;;;;5015167;28;20204;-74
2021/10/20 03:33:16;;;;;;;13.20;8.03;;;;;;;;;;5016553;28;20677;-74
2021/10/20 03:35:41;;;;;;;8.10;7.30;;;;;;;;;;5011777;28;20264;-74
2021/10/20 03:38:07;;;;;;;9.47;7.70;;;;;;;;;;5017173;28;20196;-74
2021/10/20 03:40:33;;;;;;;9.57;7.73;;;;;;;;;;5016053;28;20283;-74
2021/10/20 03:42:58;;;;;;;8.13;7.33;;;;;;;;;;5010547;28;20259;-74
2021/10/20 03:45:23;;;;;;;10.37;7.60;;;;;;;;;;5014813;28;20867;-74
2021/10/20 03:47:48;;;;;;;7.77;6.97;;;;;;;;;;5014066;28;20184;-74
2021/10/20 03:50:14;;;;;;;9.17;7.50;;;;;;;;;;5015512;28;20216;-74
2021/10/20 03:52:39;;;;;;;9.37;7.33;;;;;;;;;;5017731;28;20200;-73
2021/10/20 03:55:05;;;;;;;8.23;7.43;;;;;;;;;;5014895;28;20177;-74
2021/10/20 03:57:37;;;;;;;8.17;7.37;;;;;;;;;;5014456;28;20227;-74
2021/10/20 04:00:06;;;;;;;12.23;7.43;;;;;;;;;;5018409;28;20243;-74
2021/10/20 04:02:32;;;;;;;9.47;8.47;;;;;;;;;;5015283;28;20440;-74
2021/10/20 04:04:57;;;;;;;8.27;7.50;;;;;;;;;;5015165;28;20444;-73
2021/10/20 04:07:22;;;;;;;12.60;7.73;;;;;;;;;;5015790;28;25666;-74
2021/10/20 04:09:47;;;;;;;9.37;7.80;;;;;;;;;;5014033;28;20740;-74
2021/10/20 04:12:13;;;;;;;7.93;7.23;;;;;;;;;;5017141;28;20232;-74
2021/10/20 04:14:38;;;;;;;9.00;8.10;;;;;;;;;;5012630;28;20177;-74
2021/10/20 04:17:03;;;;;;;8.50;7.60;;;;;;;;;;5016489;28;20172;-74
2021/10/20 04:19:28;;;;;;;10.10;8.20;;;;;;;;;;5009735;28;20231;-74
2021/10/20 04:21:54;;;;;;;11.77;8.03;;;;;;;;;;5014056;28;20192;-74
2021/10/20 04:24:19;;;;;;;7.90;7.20;;;;;;;;;;5011761;28;20180;-74
2021/10/20 04:26:45;;;;;;;10.53;9.10;;;;;;;;;;5011728;28;20182;-74
2021/10/20 04:29:10;;;;;;;10.67;8.63;;;;;;;;;;5011040;28;20268;-74
2021/10/20 04:31:35;;;;;;;11.87;8.47;;;;;;;;;;5011164;28;20447;-74
2021/10/20 04:34:01;;;;;;;9.50;8.60;;;;;;;;;;5016354;28;20212;-75
2021/10/20 04:36:26;;;;;;;14.17;9.30;;;;;;;;;;5015107;28;20191;-74
2021/10/20 04:38:51;;;;;;;15.10;9.17;;;;;;;;;;5015422;28;20173;-74
2021/10/20 04:41:16;;;;;;;14.00;8.77;;;;;;;;;;5012699;28;20211;-74
2021/10/20 04:43:42;;;;;;;9.80;8.57;;;;;;;;;;5013234;28;20653;-74
2021/10/20 04:46:07;;;;;;;12.70;9.50;;;;;;;;;;5020933;28;20191;-73
2021/10/20 04:48:32;;;;;;;9.67;8.67;;;;;;;;;;5015909;28;20187;-74
2021/10/20 04:50:58;;;;;;;12.43;9.90;;;;;;;;;;5019460;28;20612;-74
2021/10/20 04:53:23;;;;;;;11.00;8.93;;;;;;;;;;5017608;28;20228;-74
2021/10/20 04:55:48;;;;;;;13.00;9.60;;;;;;;;;;5019815;28;20645;-73
2021/10/20 04:58:13;;;;;;;9.53;7.97;;;;;;;;;;5023179;28;20279;-74
2021/10/20 05:00:39;;;;;;;10.53;9.43;;;;;;;;;;5019951;28;20204;-74
2021/10/20 05:03:04;;;;;;;11.40;9.83;;;;;;;;;;5022571;28;20242;-74
2021/10/20 05:05:29;;;;;;;11.20;9.93;;;;;;;;;;5026688;28;20176;-74
2021/10/20 05:07:55;;;;;;;11.00;9.20;;;;;;;;;;5021539;28;20799;-74
2021/10/20 05:10:21;;;;;;;11.97;9.50;;;;;;;;;;5016785;28;20197;-74
2021/10/20 05:12:46;;;;;;;15.93;9.47;;;;;;;;;;5022795;28;20204;-73
2021/10/20 05:15:12;;;;;;;12.57;9.70;;;;;;;;;;5020197;28;20173;-73
2021/10/20 05:17:41;;;;;;;10.80;9.70;;;;;;;;;;5019380;28;20291;-74
2021/10/20 05:20:08;;;;;;;11.20;10.07;;;;;;;;;;5023801;28;20724;-74
2021/10/20 05:22:34;;;;;;;10.70;9.00;;;;;;;;;;5023914;28;20419;-74
2021/10/20 05:24:59;;;;;;;10.20;9.10;;;;;;;;;;5020800;28;20421;-74
2021/10/20 05:27:24;;;;;;;17.70;9.20;;;;;;;;;;5029281;28;20415;-74
2021/10/20 05:29:50;;;;;;;9.93;8.93;;;;;;;;;;5032971;28;20201;-74
2021/10/20 05:32:15;;;;;;;11.03;8.93;;;;;;;;;;5029027;28;20269;-74
2021/10/20 05:34:40;;;;;;;10.20;8.93;;;;;;;;;;5040623;28;20177;-74
2021/10/20 05:37:05;;;;;;;10.67;9.50;;;;;;;;;;5039692;28;20173;-74
2021/10/20 05:39:30;;;;;;;13.63;9.10;;;;;;;;;;5040183;28;20186;-72
2021/10/20 05:41:56;;;;;;;10.70;9.60;;;;;;;;;;5045554;28;20199;-73
2021/10/20 05:44:21;;;;;;;14.63;9.40;;;;;;;;;;5041129;28;20550;-74
2021/10/20 05:46:48;;;;;;;11.70;9.20;;;;;;;;;;5025288;28;20181;-73
2021/10/20 05:49:13;;;;;;;10.83;9.67;;;;;;;;;;5021737;28;20517;-74
2021/10/20 05:51:38;;;;;;;16.57;10.13;;;;;;;;;;5019964;28;20447;-75
2021/10/20 05:54:03;;;;;;;12.97;9.20;;;;;;;;;;5019273;28;20215;-74
2021/10/20 05:56:29;;;;;;;13.73;9.70;;;;;;;;;;5021257;28;20173;-74
2021/10/20 05:58:54;;;;;;;12.77;9.10;;;;;;;;;;5021482;28;20172;-73
2021/10/20 06:01:23;;;;;;;11.17;9.27;;;;;;;;;;5020566;28;20203;-74
2021/10/20 06:03:48;;;;;;;12.60;9.90;;;;;;;;;;5021673;28;20188;-74
2021/10/20 06:06:13;;;;;;;12.80;10.17;;;;;;;;;;5018122;28;20810;-73
2021/10/20 06:08:38;;;;;;;10.93;9.60;;;;;;;;;;5019451;28;20231;-74
2021/10/20 06:11:04;;;;;;;13.90;10.00;;;;;;;;;;5018829;28;20299;-74
2021/10/20 06:13:29;;;;;;;14.93;10.57;;;;;;;;;;5023100;28;20196;-74
2021/10/20 06:15:54;;;;;;;13.50;10.10;;;;;;;;;;5019479;28;20184;-73
2021/10/20 06:18:19;;;;;;;11.70;10.50;;;;;;;;;;5019437;28;20184;-74
2021/10/20 06:20:44;;;;;;;11.47;10.10;;;;;;;;;;5019281;28;20287;-73
2021/10/20 06:23:10;;;;;;;13.40;10.87;;;;;;;;;;5023357;28;20184;-73
2021/10/20 06:25:36;;;;;;;20.83;11.20;;;;;;;;;;5018284;28;20173;-72
2021/10/20 06:28:01;;;;;;;14.03;10.10;;;;;;;;;;5015548;28;20740;-73
2021/10/20 06:30:26;;;;;;;14.63;10.90;;;;;;;;;;5020619;28;20451;-73
2021/10/20 06:32:52;;;;;;;13.20;10.03;;;;;;;;;;5015947;28;20201;-73
2021/10/20 06:35:17;;;;;;;12.80;11.13;;;;;;;;;;5021895;28;20169;-73
2021/10/20 06:37:46;;;;;;;12.87;11.47;;;;;;;;;;5017425;28;20177;-73
2021/10/20 06:40:11;;;;;;;18.50;11.00;;;;;;;;;;5021572;28;20220;-73
2021/10/20 06:42:36;;;;;;;12.63;11.30;;;;;;;;;;5018033;28;20475;-73
2021/10/20 06:45:03;;;;;;;16.43;12.17;;;;;;;;;;5021521;28;20243;-73
2021/10/20 06:47:28;;;;;;;13.33;11.93;;;;;;;;;;5019034;28;20188;-73
2021/10/20 06:49:54;;;;;;;12.90;11.60;;;;;;;;;;5016203;28;20455;-73
2021/10/20 06:52:19;;;;;;;15.87;13.47;;;;;;;;;;5018385;28;20262;-73
2021/10/20 06:54:44;;;;;;;20.50;12.90;;;;;;;;;;5020199;28;20234;-74
2021/10/20 06:57:10;;;;;;;17.33;13.07;;;;;;;;;;5013275;28;20173;-74
2021/10/20 06:59:35;;;;;;;16.10;13.07;;;;;;;;;;5019018;28;20236;-74
2021/10/20 07:02:00;;;;;;;16.90;13.50;;;;;;;;;;5015100;28;20267;-75
2021/10/20 07:04:26;;;;;;;16.60;14.10;;;;;;;;;;5018628;28;20180;-73
2021/10/20 07:06:51;;;;;;;16.77;14.33;;;;;;;;;;5013967;28;20643;-74
2021/10/20 07:09:16;;;;;;;19.30;14.70;;;;;;;;;;5015688;28;20188;-74
2021/10/20 07:11:41;;;;;;;18.60;14.10;;;;;;;;;;5018934;28;20212;-74
2021/10/20 07:14:07;;;;;;;16.57;12.90;;;;;;;;;;5017111;28;20267;-74
2021/10/20 07:16:34;;;;;;;19.23;13.17;;;;;;;;;;5017245;28;20180;-74
2021/10/20 07:18:59;;;;;;;16.37;13.10;;;;;;;;;;5018866;28;20185;-74
2021/10/20 07:21:24;;;;;;;17.30;13.13;;;;;;;;;;5021626;28;20997;-74
2021/10/20 07:23:49;;;;;;;17.10;12.43;;;;;;;;;;5022533;28;20188;-74
2021/10/20 07:26:20;;;;;;;14.63;12.63;;;;;;;;;;5019626;28;20191;-73
2021/10/20 07:28:46;;;;;;;12.63;10.97;;;;;;;;;;5014891;28;20637;-73
2021/10/20 07:31:11;;;;;;;14.20;12.37;;;;;;;;;;5019582;28;20451;-74
2021/10/20 07:33:36;;;;;;;13.43;12.03;;;;;;;;;;5016026;28;20254;-73
2021/10/20 07:36:01;;;;;;;15.80;13.03;;;;;;;;;;5010915;28;20259;-75
2021/10/20 07:38:27;;;;;;;15.10;13.30;;;;;;;;;;5015962;28;20677;-73
2021/10/20 07:40:52;;;;;;;15.63;13.70;;;;;;;;;;5014381;28;20672;-74
2021/10/20 07:43:17;;;;;;;15.10;12.73;;;;;;;;;;5017740;28;20206;-73
2021/10/20 07:45:42;;;;;;;14.53;12.90;;;;;;;;;;5016469;28;20176;-73
2021/10/20 07:48:08;;;;;;;13.33;11.93;;;;;;;;;;5012902;28;20225;-73
2021/10/20 07:50:34;;;;;;;17.33;12.13;;;;;;;;;;5021239;28;20207;-74
2021/10/20 07:52:59;;;;;;;12.87;11.50;;;;;;;;;;5016104;28;20224;-73
2021/10/20 07:55:25;;;;;;;18.13;12.80;;;;;;;;;;5021083;28;20176;-74
2021/10/20 07:57:51;;;;;;;16.23;13.43;;;;;;;;;;5012216;28;20168;-75
2021/10/20 08:00:16;;;;;;;16.77;13.77;;;;;;;;;;5016680;28;20228;-75
2021/10/20 08:02:42;;;;;;;18.20;15.00;;;;;;;;;;5015845;28;21136;-74
2021/10/20 08:05:11;;;;;;;20.57;13.63;;;;;;;;;;5016285;28;20524;-74
2021/10/20 08:07:43;;;;;;;15.20;13.60;;;;;;;;;;5019956;28;20223;-74
2021/10/20 08:10:09;;;;;;;17.67;15.27;;;;;;;;;;5014997;28;20845;-74
2021/10/20 08:12:34;;;;;;;21.90;15.20;;;;;;;;;;5015297;28;20472;-74
2021/10/20 08:15:00;;;;;;;19.30;14.80;;;;;;;;;;5016047;28;20203;-74
2021/10/20 08:17:25;;;;;;;17.13;13.90;;;;;;;;;;5018070;28;20174;-73
2021/10/20 08:19:50;;;;;;;19.13;14.00;;;;;;;;;;5017314;28;20520;-74
2021/10/20 08:22:16;;;;;;;14.43;12.10;;;;;;;;;;5015568;28;20184;-76
2021/10/20 08:24:41;;;;;;;18.20;14.10;;;;;;;;;;5016502;28;20265;-76
2021/10/20 08:27:07;;;;;;;16.97;13.23;;;;;;;;;;5012421;28;20267;-76
2021/10/20 08:29:33;;;;;;;17.07;13.20;;;;;;;;;;5022566;28;20346;-75
2021/10/20 08:31:58;;;;;;;15.03;12.10;;;;;;;;;;5015993;28;20440;-74
2021/10/20 08:34:23;;;;;;;17.10;12.20;;;;;;;;;;5012940;28;20925;-74
2021/10/20 08:36:49;;;;;;;12.23;10.97;;;;;;;;;;5012022;28;20207;-76
2021/10/20 08:39:15;;;;;;;12.80;10.87;;;;;;;;;;5017396;28;20256;-74
2021/10/20 08:41:40;;;;;;;12.13;10.80;;;;;;;;;;5014345;28;20204;-74
2021/10/20 08:44:05;;;;;;;11.20;9.57;;;;;;;;;;5016292;28;20201;-74
2021/10/20 08:46:32;;;;;;;11.53;10.30;;;;;;;;;;5016585;28;20250;-75
2021/10/20 08:49:00;;;;;;;14.43;11.13;;;;;;;;;;5015445;28;20196;-75
2021/10/20 08:51:26;;;;;;;11.93;10.73;;;;;;;;;;5015309;28;20939;-74
2021/10/20 08:53:51;;;;;;;12.37;10.67;;;;;;;;;;5019894;28;20475;-75
2021/10/20 08:56:18;;;;;;;15.37;10.90;;;;;;;;;;5013962;28;20185;-74
2021/10/20 08:58:43;;;;;;;11.13;9.90;;;;;;;;;;5012615;28;20200;-75
2021/10/20 09:01:08;;;;;;;11.60;10.40;;;;;;;;;;5027158;28;20985;-75
2021/10/20 09:03:34;;;;;;;13.23;10.90;;;;;;;;;;5011600;28;20676;-75
2021/10/20 09:05:59;;;;;;;14.17;10.47;;;;;;;;;;5016965;28;20188;-75
2021/10/20 09:08:24;;;;;;;11.30;10.13;;;;;;;;;;5015187;28;20633;-74
2021/10/20 09:10:50;;;;;;;14.07;11.90;;;;;;;;;;5013914;28;20856;-74
2021/10/20 09:13:15;;;;;;;13.00;10.40;;;;;;;;;;5016924;28;20208;-75
2021/10/20 09:15:41;;;;;;;11.27;10.07;;;;;;;;;;5016151;28;20177;-75
2021/10/20 09:18:10;;;;;;;13.13;10.30;;;;;;;;;;5013605;28;20185;-75
2021/10/20 09:20:43;;;;;;;12.00;10.57;;;;;;;;;;5019531;28;20545;-75
2021/10/20 09:23:13;;;;;;;13.37;10.77;;;;;;;;;;5016099;28;20794;-75
2021/10/20 09:25:41;;;;;;;12.37;10.83;;;;;;;;;;5014044;28;20438;-75
2021/10/20 09:28:07;;;;;;;12.97;10.40;;;;;;;;;;5013462;28;20436;-74
2021/10/20 09:30:33;;;;;;;11.73;10.33;;;;;;;;;;5014144;28;20482;-75
2021/10/20 09:32:59;;;;;;;13.20;11.13;;;;;;;;;;5015073;28;20875;-75
2021/10/20 09:35:27;;;;;;;11.43;10.13;;;;;;;;;;5019321;28;20185;-75
2021/10/20 09:37:57;;;;;;;13.00;10.33;;;;;;;;;;5018951;28;20442;-75
2021/10/20 09:40:22;;;;;;;11.00;9.13;;;;;;;;;;5025558;28;20803;-75
2021/10/20 09:42:51;;;;;;;10.27;9.20;;;;;;;;;;5024901;28;20480;-75
2021/10/20 09:45:18;;;;;;;10.83;9.60;;;;;;;;;;5020593;28;20168;-74
2021/10/20 09:47:44;;;;;;;11.50;8.87;;;;;;;;;;5023004;28;20412;-77
2021/10/20 09:50:12;;;;;;;12.60;9.03;;;;;;;;;;5022637;28;20439;-78
2021/10/20 09:52:45;;;;;;;9.57;8.03;;;;;;;;;;5021728;28;20679;-76
2021/10/20 09:55:24;;;;;;;9.23;8.30;;;;;;;;;;5022915;28;20415;-74
2021/10/20 09:57:49;;;;;;;11.93;8.07;;;;;;;;;;5025312;28;20985;-74
2021/10/20 10:00:14;;;;;;;9.10;8.27;;;;;;;;;;5021215;28;20423;-74
2021/10/20 10:02:40;;;;;;;12.50;8.43;;;;;;;;;;5017169;28;20188;-74
2021/10/20 10:05:07;;;;;;;12.10;8.33;;;;;;;;;;5018585;28;20177;-74
2021/10/20 10:07:32;;;;;;;9.10;8.20;;;;;;;;;;5018537;28;20184;-74
2021/10/20 10:09:57;;;;;;;8.23;7.47;;;;;;;;;;5023678;28;20856;-75
2021/10/20 10:12:25;;;;;;;11.97;8.20;;;;;;;;;;5022496;28;20184;-74
2021/10/20 10:14:52;;;;;;;9.00;8.10;;;;;;;;;;5022415;28;20710;-75
2021/10/20 10:17:19;;;;;;;9.10;8.17;;;;;;;;;;5024714;28;20411;-74
2021/10/20 10:19:44;;;;;;;10.00;7.80;;;;;;;;;;5022042;28;20936;-75
2021/10/20 10:22:23;;;;;;;8.27;7.43;;;;;;;;;;5021910;28;20411;-75
2021/10/20 10:24:48;;;;;;;13.63;8.10;;;;;;;;;;5023539;28;20169;-74
2021/10/20 10:27:13;;;;;;;9.80;7.83;;;;;;;;;;5021280;28;20414;-74
2021/10/20 10:29:48;;;;;;;11.37;7.93;;;;;;;;;;5020872;28;20180;-75
2021/10/20 10:32:13;;;;;;;9.43;7.63;;;;;;;;;;5023276;28;20167;-74
2021/10/20 10:34:44;;;;;;;10.93;7.80;;;;;;;;;;5024164;28;20420;-75
2021/10/20 10:37:18;;;;;;;8.40;7.57;;;;;;;;;;5022318;28;20185;-74
2021/10/20 10:39:47;;;;;;;8.77;7.97;;;;;;;;;;5019052;28;20415;-73
2021/10/20 10:42:14;;;;;;;13.20;8.37;;;;;;;;;;5022612;28;20403;-74
2021/10/20 10:44:49;;;;;;;10.27;8.17;;;;;;;;;;5020523;28;20427;-75
2021/10/20 10:47:26;;;;;;;11.90;7.87;;;;;;;;;;5021280;28;20499;-75
2021/10/20 10:49:53;;;;;;;11.43;8.73;;;;;;;;;;5016375;28;20459;-76
2021/10/20 10:52:39;;;;;;;9.53;7.87;;;;;;;;;;5018092;28;20436;-74
2021/10/20 11:14:21;;;;;;;9.17;7.20;;;;;;;;;;6145296;22;884209;-75
2021/10/20 11:16:47;;;;;;;7.40;6.63;;;;;;;;;;6102516;23;1279001;-76
2021/10/20 11:19:12;;;;;;;11.43;7.10;;;;;;;;;;6160488;23;20144;-77
2021/10/20 11:21:37;;;;;;;7.90;7.03;;;;;;;;;;6157940;23;20388;-76
2021/10/20 11:39:50;;;;;;;11.33;7.67;;;;;;;;;;6186448;23;20411;-81
2021/10/20 11:58:17;;;;;;;12.07;7.83;;;;;;;;;;5097113;27;20575;-75
2021/10/20 12:09:33;;;;;;;9.63;8.60;;;;;;;;;;5095531;27;20886;-76
2021/10/20 12:11:59;;;;;;;9.27;8.30;;;;;;;;;;5083323;28;20927;-77
2021/10/20 12:14:30;;;;;;;12.23;8.70;;;;;;;;;;5081598;28;20189;-76
2021/10/20 12:16:56;;;;;;;9.93;8.90;;;;;;;;;;5079377;28;20432;-77
2021/10/20 12:19:22;;;;;;;11.40;8.90;;;;;;;;;;5083067;28;20421;-76
2021/10/20 12:37:05;;;;;;;8.67;7.27;;;;;;;;;;5074813;27;20641;-75
2021/10/20 12:39:30;;;;;;;7.10;6.40;;;;;;;;;;5074078;28;20969;-75
2021/10/20 12:41:59;;;;;;;7.10;5.90;;;;;;;;;;5077877;28;20191;-75
2021/10/20 12:44:25;;;;;;;7.90;5.80;;;;;;;;;;5076628;28;20674;-76
2021/10/20 12:46:52;;;;;;;10.00;6.77;;;;;;;;;;5074282;28;20413;-75
2021/10/20 12:49:17;;;;;;;9.40;7.50;;;;;;;;;;5079844;28;20651;-75
2021/10/20 12:51:43;;;;;;;11.80;7.23;;;;;;;;;;5068027;28;20425;-75
2021/10/20 12:54:09;;;;;;;8.60;5.90;;;;;;;;;;5076905;28;20616;-75
2021/10/20 12:56:35;;;;;;;9.40;5.73;;;;;;;;;;5078784;28;20197;-75
2021/10/20 12:59:14;;;;;;;7.10;5.47;;;;;;;;;;5073696;28;20203;-75
2021/10/20 13:01:39;;;;;;;6.97;5.53;;;;;;;;;;5078537;28;20428;-78
2021/10/20 13:04:06;;;;;;;11.27;5.40;;;;;;;;;;5078250;28;20492;-76
2021/10/20 13:06:31;;;;;;;10.47;6.10;;;;;;;;;;5078649;28;20207;-75
2021/10/20 13:08:56;;;;;;;11.00;5.80;;;;;;;;;;5076594;28;20452;-75
2021/10/20 13:11:22;;;;;;;10.40;5.80;;;;;;;;;;5074115;28;20632;-76
2021/10/20 13:13:47;;;;;;;8.97;5.10;;;;;;;;;;5077670;28;20197;-76
2021/10/20 13:16:13;;;;;;;15.13;5.70;;;;;;;;;;5076585;28;20186;-75
2021/10/20 13:18:38;;;;;;;7.20;5.20;;;;;;;;;;5078933;28;20195;-76
2021/10/20 13:21:03;;;;;;;8.23;5.00;;;;;;;;;;5077664;28;20767;-75
2021/10/20 13:23:34;;;;;;;9.70;5.00;;;;;;;;;;5080624;28;20178;-76
2021/10/20 13:25:59;;;;;;;13.13;5.33;;;;;;;;;;5082172;28;20698;-76
2021/10/20 13:28:24;;;;;;;9.80;4.67;;;;;;;;;;5074462;28;20449;-76
2021/10/20 13:30:50;;;;;;;16.07;5.30;;;;;;;;;;5076922;28;20183;-75
2021/10/20 13:33:15;;;;;;;15.30;5.27;;;;;;;;;;5073371;28;20183;-76
2021/10/20 13:35:40;;;;;;;13.27;6.00;;;;;;;;;;5084790;28;20748;-75
2021/10/20 13:38:09;;;;;;;9.83;5.30;;;;;;;;;;5085678;28;20224;-76
2021/10/20 13:40:36;;;;;;;11.70;4.17;;;;;;;;;;5086131;28;20694;-76
2021/10/20 13:43:02;;;;;;;10.20;5.40;;;;;;;;;;5081686;28;21147;-75
2021/10/20 13:45:27;;;;;;;8.00;5.00;;;;;;;;;;5085987;28;20490;-77
2021/10/20 13:47:53;;;;;;;11.97;4.00;;;;;;;;;;5084125;28;20202;-75
2021/10/20 13:50:18;;;;;;;19.13;5.60;;;;;;;;;;5083773;28;20647;-75
2021/10/20 13:52:44;;;;;;;15.40;4.50;;;;;;;;;;5082619;28;21204;-75
2021/10/20 13:55:10;;;;;;;17.17;5.17;;;;;;;;;;5078786;28;20611;-75
2021/10/20 13:57:35;;;;;;;9.70;3.70;;;;;;;;;;5079495;28;20202;-75
2021/10/20 14:00:01;;;;;;;7.83;4.13;;;;;;;;;;5085188;28;20222;-75
2021/10/20 14:02:27;;;;;;;10.07;4.47;;;;;;;;;;5085474;28;20765;-76
2021/10/20 14:04:54;;;;;;;11.30;4.50;;;;;;;;;;5085957;28;20460;-75
2021/10/20 14:07:20;;;;;;;15.77;4.10;;;;;;;;;;5081074;28;20274;-76
2021/10/20 14:09:45;;;;;;;11.47;4.27;;;;;;;;;;5080537;28;20567;-76
2021/10/20 14:12:11;;;;;;;15.73;4.60;;;;;;;;;;5080607;28;20189;-75
2021/10/20 14:14:36;;;;;;;9.53;4.10;;;;;;;;;;5087617;28;20178;-76
2021/10/20 14:17:02;;;;;;;14.30;4.93;;;;;;;;;;5082427;28;20202;-77
2021/10/20 14:19:27;;;;;;;12.67;5.27;;;;;;;;;;5086699;28;20190;-77
2021/10/20 14:21:52;;;;;;;16.03;5.47;;;;;;;;;;5081694;28;20522;-76
2021/10/20 14:24:18;;;;;;;14.50;4.30;;;;;;;;;;5087628;28;20206;-75
2021/10/20 14:26:43;;;;;;;8.83;4.40;;;;;;;;;;5079927;28;20179;-75
2021/10/20 14:29:09;;;;;;;11.80;5.10;;;;;;;;;;5078853;28;20173;-75
2021/10/20 14:31:38;;;;;;;6.27;3.73;;;;;;;;;;5077142;28;20265;-75
2021/10/20 14:34:07;;;;;;;14.23;4.47;;;;;;;;;;5081240;28;20175;-74
2021/10/20 14:36:33;;;;;;;11.43;3.87;;;;;;;;;;5081904;28;21078;-74
2021/10/20 14:38:59;;;;;;;12.70;4.23;;;;;;;;;;5082099;28;20452;-75
2021/10/20 14:41:25;;;;;;;10.73;4.17;;;;;;;;;;5080003;28;20243;-74
2021/10/20 14:43:52;;;;;;;8.20;4.43;;;;;;;;;;5077560;28;20252;-75
2021/10/20 14:46:17;;;;;;;7.03;3.37;;;;;;;;;;5076549;28;20203;-74
2021/10/20 14:48:46;;;;;;;11.80;4.10;;;;;;;;;;5072248;28;20456;-74
2021/10/20 14:51:11;;;;;;;16.47;4.47;;;;;;;;;;5074685;28;20222;-74
2021/10/20 14:53:36;;;;;;;9.60;4.33;;;;;;;;;;5078813;28;20797;-75
2021/10/20 14:56:01;;;;;;;10.13;3.90;;;;;;;;;;5079819;28;20189;-74
2021/10/20 14:58:27;;;;;;;8.50;3.63;;;;;;;;;;5077019;28;20198;-74
2021/10/20 15:00:52;;;;;;;13.53;4.00;;;;;;;;;;5079944;28;20632;-75
2021/10/20 15:03:17;;;;;;;13.50;4.40;;;;;;;;;;5074701;28;20178;-74
2021/10/20 15:05:43;;;;;;;11.50;3.80;;;;;;;;;;5078786;28;20294;-75
2021/10/20 15:08:09;;;;;;;16.10;4.23;;;;;;;;;;5080211;28;20557;-74
2021/10/20 15:10:34;;;;;;;9.63;3.37;;;;;;;;;;5080724;28;20175;-75
2021/10/20 15:12:59;;;;;;;9.20;3.90;;;;;;;;;;5084102;28;20930;-73
2021/10/20 15:15:25;;;;;;;9.70;3.20;;;;;;;;;;5076118;28;20703;-74
2021/10/20 15:17:56;;;;;;;8.27;3.47;;;;;;;;;;5078711;28;20205;-74
2021/10/20 15:20:26;;;;;;;11.67;3.90;;;;;;;;;;5084231;28;20580;-75
2021/10/20 15:22:51;;;;;;;6.83;3.57;;;;;;;;;;5081195;28;20489;-76
2021/10/20 15:25:16;;;;;;;8.43;3.50;;;;;;;;;;5081149;28;20969;-74
2021/10/20 15:27:41;;;;;;;9.83;3.53;;;;;;;;;;5075190;28;20195;-74
2021/10/20 15:30:07;;;;;;;10.40;3.33;;;;;;;;;;5078479;28;20179;-74
2021/10/20 15:32:33;;;;;;;9.10;3.47;;;;;;;;;;5077444;28;20178;-74
2021/10/20 15:34:59;;;;;;;13.70;3.80;;;;;;;;;;5083528;28;20902;-74
2021/10/20 15:37:24;;;;;;;10.87;3.00;;;;;;;;;;5081499;28;20194;-75